sensor_id;sensor_type;location;lat;lon;timestamp;P1;P2;P0
73631;PMS5003;61924;53.268;-2.458;2022-12-17T12:22:04;46;43;
73631;PMS5003;61924;53.268;-2.458;2022-12-17T12:24:37;39;38;
73631;PMS5003;61924;53.268;-2.458;2022-12-17T12:26:56;36;34;
73631;PMS5003;61924;53.268;-2.458;2022-12-17T12:29:20;29;27;
73631;PMS5003;61924;53.268;-2.458;2022-12-17T12:31:45;33;28;
73631;PMS5003;61924;53.268;-2.458;2022-12-17T12:34:10;35;32;
73631;PMS5003;61924;53.268;-2.458;2022-12-17T12:36:35;29;27;
73631;PMS5003;61924;53.268;-2.458;2022-12-17T12:39:01;22;21;
73631;PMS5003;61924;53.268;-2.458;2022-12-17T12:41:29;28;28;
73631;PMS5003;61924;53.268;-2.458;2022-12-17T12:43:54;28;25;
73631;PMS5003;61924;53.268;-2.458;2022-12-17T12:46:19;25;24;
73631;PMS5003;61924;53.268;-2.458;2022-12-17T12:48:44;26;25;
73631;PMS5003;61924;53.268;-2.458;2022-12-17T12:51:10;27;27;
73631;PMS5003;61924;53.268;-2.458;2022-12-17T12:53:35;28;25;
73631;PMS5003;61924;53.268;-2.458;2022-12-17T12:56:00;31;30;
73631;PMS5003;61924;53.268;-2.458;2022-12-17T12:58:27;25;24;
73631;PMS5003;61924;53.268;-2.458;2022-12-17T13:00:53;27;25;
73631;PMS5003;61924;53.268;-2.458;2022-12-17T13:03:22;24;24;
73631;PMS5003;61924;53.268;-2.458;2022-12-17T13:05:43;29;27;
73631;PMS5003;61924;53.268;-2.458;2022-12-17T13:08:24;28;24;
73631;PMS5003;61924;53.268;-2.458;2022-12-17T13:10:35;25;25;
73631;PMS5003;61924;53.268;-2.458;2022-12-17T13:13:05;23;19;
73631;PMS5003;61924;53.268;-2.458;2022-12-17T13:15:30;26;24;
73631;PMS5003;61924;53.268;-2.458;2022-12-17T13:17:54;22;22;
73631;PMS5003;61924;53.268;-2.458;2022-12-17T13:20:20;22;20;
73631;PMS5003;61924;53.268;-2.458;2022-12-17T13:22:48;24;22;
73631;PMS5003;61924;53.268;-2.458;2022-12-17T13:25:13;23;20;
73631;PMS5003;61924;53.268;-2.458;2022-12-17T13:27:35;22;21;
73631;PMS5003;61924;53.268;-2.458;2022-12-17T13:30:10;20;18;
73631;PMS5003;61924;53.268;-2.458;2022-12-17T13:32:24;28;24;
73631;PMS5003;61924;53.268;-2.458;2022-12-17T13:34:53;18;17;
73631;PMS5003;61924;53.268;-2.458;2022-12-17T13:37:18;23;20;
73631;PMS5003;61924;53.268;-2.458;2022-12-17T13:39:43;21;20;
73631;PMS5003;61924;53.268;-2.458;2022-12-17T13:42:13;19;18;
73631;PMS5003;61924;53.268;-2.458;2022-12-17T13:44:34;24;20;
73631;PMS5003;61924;53.268;-2.458;2022-12-17T13:46:56;17;17;
73631;PMS5003;61924;53.268;-2.458;2022-12-17T13:49:22;19;19;
73631;PMS5003;61924;53.268;-2.458;2022-12-17T13:51:47;15;15;
73631;PMS5003;61924;53.268;-2.458;2022-12-17T13:54:13;19;17;
73631;PMS5003;61924;53.268;-2.458;2022-12-17T13:56:38;22;21;
73631;PMS5003;61924;53.268;-2.458;2022-12-17T13:59:03;16;15;
73631;PMS5003;61924;53.268;-2.458;2022-12-17T14:01:29;17;15;
73631;PMS5003;61924;53.268;-2.458;2022-12-17T14:03:54;16;15;
73631;PMS5003;61924;53.268;-2.458;2022-12-17T14:06:20;15;15;
73631;PMS5003;61924;53.268;-2.458;2022-12-17T14:08:45;18;16;
73631;PMS5003;61924;53.268;-2.458;2022-12-17T14:11:11;15;13;
73631;PMS5003;61924;53.268;-2.458;2022-12-17T14:13:36;15;14;
73631;PMS5003;61924;53.268;-2.458;2022-12-17T14:16:01;17;16;
73631;PMS5003;61924;53.268;-2.458;2022-12-17T14:18:27;15;14;
73631;PMS5003;61924;53.268;-2.458;2022-12-17T14:20:52;13;12;
73631;PMS5003;61924;53.268;-2.458;2022-12-17T14:23:19;14;13;
73631;PMS5003;61924;53.268;-2.458;2022-12-17T14:25:43;11;11;
73631;PMS5003;61924;53.268;-2.458;2022-12-17T14:28:19;13;12;
73631;PMS5003;61924;53.268;-2.458;2022-12-17T14:30:36;13;12;
73631;PMS5003;61924;53.268;-2.458;2022-12-17T14:32:59;14;14;
73631;PMS5003;61924;53.268;-2.458;2022-12-17T14:35:26;14;14;
73631;PMS5003;61924;53.268;-2.458;2022-12-17T14:37:50;13;13;
73631;PMS5003;61924;53.268;-2.458;2022-12-17T14:40:16;12;12;
73631;PMS5003;61924;53.268;-2.458;2022-12-17T14:42:41;12;12;
73631;PMS5003;61924;53.268;-2.458;2022-12-17T14:45:19;13;11;
73631;PMS5003;61924;53.268;-2.458;2022-12-17T14:47:32;11;11;
73631;PMS5003;61924;53.268;-2.458;2022-12-17T14:49:59;12;12;
73631;PMS5003;61924;53.268;-2.458;2022-12-17T14:52:32;11;11;
73631;PMS5003;61924;53.268;-2.458;2022-12-17T14:54:49;12;11;
73631;PMS5003;61924;53.268;-2.458;2022-12-17T14:57:18;11;10;
73631;PMS5003;61924;53.268;-2.458;2022-12-17T14:59:40;13;12;
73631;PMS5003;61924;53.268;-2.458;2022-12-17T15:02:11;13;13;
73631;PMS5003;61924;53.268;-2.458;2022-12-17T15:04:31;10;10;
73631;PMS5003;61924;53.268;-2.458;2022-12-17T15:06:57;13;12;
73631;PMS5003;61924;53.268;-2.458;2022-12-17T15:09:22;15;14;
73631;PMS5003;61924;53.268;-2.458;2022-12-17T15:11:47;13;12;
73631;PMS5003;61924;53.268;-2.458;2022-12-17T15:14:13;12;11;
73631;PMS5003;61924;53.268;-2.458;2022-12-17T15:16:38;11;11;
73631;PMS5003;61924;53.268;-2.458;2022-12-17T15:19:04;12;11;
73631;PMS5003;61924;53.268;-2.458;2022-12-17T15:21:29;11;10;
73631;PMS5003;61924;53.268;-2.458;2022-12-17T15:23:55;18;16;
73631;PMS5003;61924;53.268;-2.458;2022-12-17T15:26:20;9;8;
73631;PMS5003;61924;53.268;-2.458;2022-12-17T15:28:46;13;11;
73631;PMS5003;61924;53.268;-2.458;2022-12-17T15:31:13;12;12;
73631;PMS5003;61924;53.268;-2.458;2022-12-17T15:33:37;8;8;
73631;PMS5003;61924;53.268;-2.458;2022-12-17T15:36:03;7;7;
73631;PMS5003;61924;53.268;-2.458;2022-12-17T15:38:28;9;9;
73631;PMS5003;61924;53.268;-2.458;2022-12-17T15:40:53;13;13;
73631;PMS5003;61924;53.268;-2.458;2022-12-17T15:43:19;7;7;
73631;PMS5003;61924;53.268;-2.458;2022-12-17T15:45:45;9;8;
73631;PMS5003;61924;53.268;-2.458;2022-12-17T15:48:10;8;8;
73631;PMS5003;61924;53.268;-2.458;2022-12-17T15:50:35;10;10;
73631;PMS5003;61924;53.268;-2.458;2022-12-17T15:53:00;12;12;
73631;PMS5003;61924;53.268;-2.458;2022-12-17T15:55:26;11;10;
73631;PMS5003;61924;53.268;-2.458;2022-12-17T15:57:51;10;10;
73631;PMS5003;61924;53.268;-2.458;2022-12-17T16:00:16;10;10;
73631;PMS5003;61924;53.268;-2.458;2022-12-17T16:02:41;12;11;
73631;PMS5003;61924;53.268;-2.458;2022-12-17T16:05:07;7;7;
73631;PMS5003;61924;53.268;-2.458;2022-12-17T16:07:32;10;10;
73631;PMS5003;61924;53.268;-2.458;2022-12-17T16:09:58;8;8;
73631;PMS5003;61924;53.268;-2.458;2022-12-17T16:12:23;9;9;
73631;PMS5003;61924;53.268;-2.458;2022-12-17T16:14:49;11;10;
73631;PMS5003;61924;53.268;-2.458;2022-12-17T16:17:15;9;9;
73631;PMS5003;61924;53.268;-2.458;2022-12-17T16:19:40;10;9;
73631;PMS5003;61924;53.268;-2.458;2022-12-17T16:22:06;11;10;
73631;PMS5003;61924;53.268;-2.458;2022-12-17T16:24:31;9;9;
73631;PMS5003;61924;53.268;-2.458;2022-12-17T16:26:56;8;8;
73631;PMS5003;61924;53.268;-2.458;2022-12-17T16:29:22;9;9;
73631;PMS5003;61924;53.268;-2.458;2022-12-17T16:31:47;9;9;
73631;PMS5003;61924;53.268;-2.458;2022-12-17T16:34:13;9;9;
73631;PMS5003;61924;53.268;-2.458;2022-12-17T16:36:38;10;10;
73631;PMS5003;61924;53.268;-2.458;2022-12-17T16:39:04;11;10;
73631;PMS5003;61924;53.268;-2.458;2022-12-17T16:41:28;9;9;
73631;PMS5003;61924;53.268;-2.458;2022-12-17T16:43:54;11;11;
73631;PMS5003;61924;53.268;-2.458;2022-12-17T16:46:23;10;9;
73631;PMS5003;61924;53.268;-2.458;2022-12-17T16:48:45;8;8;
73631;PMS5003;61924;53.268;-2.458;2022-12-17T16:51:14;9;8;
73631;PMS5003;61924;53.268;-2.458;2022-12-17T16:53:36;8;7;
73631;PMS5003;61924;53.268;-2.458;2022-12-17T16:56:02;6;6;
73631;PMS5003;61924;53.268;-2.458;2022-12-17T16:58:27;8;8;
73631;PMS5003;61924;53.268;-2.458;2022-12-17T17:00:53;7;7;
73631;PMS5003;61924;53.268;-2.458;2022-12-17T17:03:18;8;7;
73631;PMS5003;61924;53.268;-2.458;2022-12-17T17:05:44;6;6;
73631;PMS5003;61924;53.268;-2.458;2022-12-17T17:08:09;10;10;
73631;PMS5003;61924;53.268;-2.458;2022-12-17T17:10:35;9;8;
73631;PMS5003;61924;53.268;-2.458;2022-12-17T17:13:00;9;8;
73631;PMS5003;61924;53.268;-2.458;2022-12-17T17:15:25;9;9;
73631;PMS5003;61924;53.268;-2.458;2022-12-17T17:17:51;7;7;
73631;PMS5003;61924;53.268;-2.458;2022-12-17T17:20:17;5;5;
73631;PMS5003;61924;53.268;-2.458;2022-12-17T17:22:42;9;8;
73631;PMS5003;61924;53.268;-2.458;2022-12-17T17:25:08;8;8;
73631;PMS5003;61924;53.268;-2.458;2022-12-17T17:27:34;8;8;
73631;PMS5003;61924;53.268;-2.458;2022-12-17T17:29:59;7;7;
73631;PMS5003;61924;53.268;-2.458;2022-12-17T17:32:24;8;8;
73631;PMS5003;61924;53.268;-2.458;2022-12-17T17:34:50;6;6;
73631;PMS5003;61924;53.268;-2.458;2022-12-17T17:37:15;19;18;
73631;PMS5003;61924;53.268;-2.458;2022-12-17T17:39:41;13;13;
73631;PMS5003;61924;53.268;-2.458;2022-12-17T17:42:06;15;15;
73631;PMS5003;61924;53.268;-2.458;2022-12-17T17:44:31;11;11;
73631;PMS5003;61924;53.268;-2.458;2022-12-17T17:46:57;13;11;
73631;PMS5003;61924;53.268;-2.458;2022-12-17T17:49:23;11;11;
73631;PMS5003;61924;53.268;-2.458;2022-12-17T17:51:48;11;11;
73631;PMS5003;61924;53.268;-2.458;2022-12-17T17:54:14;13;11;
73631;PMS5003;61924;53.268;-2.458;2022-12-17T17:56:40;12;11;
73631;PMS5003;61924;53.268;-2.458;2022-12-17T17:59:05;9;9;
73631;PMS5003;61924;53.268;-2.458;2022-12-17T18:01:31;10;10;
73631;PMS5003;61924;53.268;-2.458;2022-12-17T18:03:57;11;9;
73631;PMS5003;61924;53.268;-2.458;2022-12-17T18:06:22;13;13;
73631;PMS5003;61924;53.268;-2.458;2022-12-17T18:08:47;10;10;
73631;PMS5003;61924;53.268;-2.458;2022-12-17T18:11:14;12;12;
73631;PMS5003;61924;53.268;-2.458;2022-12-17T18:13:39;10;10;
73631;PMS5003;61924;53.268;-2.458;2022-12-17T18:16:04;10;10;
73631;PMS5003;61924;53.268;-2.458;2022-12-17T18:18:29;12;11;
73631;PMS5003;61924;53.268;-2.458;2022-12-17T18:21:00;11;11;
73631;PMS5003;61924;53.268;-2.458;2022-12-17T18:23:20;12;12;
73631;PMS5003;61924;53.268;-2.458;2022-12-17T18:25:46;12;11;
73631;PMS5003;61924;53.268;-2.458;2022-12-17T18:28:11;13;13;
73631;PMS5003;61924;53.268;-2.458;2022-12-17T18:30:36;10;10;
73631;PMS5003;61924;53.268;-2.458;2022-12-17T18:33:02;10;9;
73631;PMS5003;61924;53.268;-2.458;2022-12-17T18:35:27;11;11;
73631;PMS5003;61924;53.268;-2.458;2022-12-17T18:37:52;11;11;
73631;PMS5003;61924;53.268;-2.458;2022-12-17T18:40:17;9;9;
73631;PMS5003;61924;53.268;-2.458;2022-12-17T18:42:43;10;10;
73631;PMS5003;61924;53.268;-2.458;2022-12-17T18:45:08;8;8;
73631;PMS5003;61924;53.268;-2.458;2022-12-17T18:47:33;7;7;
73631;PMS5003;61924;53.268;-2.458;2022-12-17T18:49:58;11;10;
73631;PMS5003;61924;53.268;-2.458;2022-12-17T18:52:24;8;8;
73631;PMS5003;61924;53.268;-2.458;2022-12-17T18:54:49;10;9;
73631;PMS5003;61924;53.268;-2.458;2022-12-17T18:57:15;9;9;
73631;PMS5003;61924;53.268;-2.458;2022-12-17T18:59:40;9;8;
73631;PMS5003;61924;53.268;-2.458;2022-12-17T19:02:08;6;6;
73631;PMS5003;61924;53.268;-2.458;2022-12-17T19:04:31;7;7;
73631;PMS5003;61924;53.268;-2.458;2022-12-17T19:06:56;7;7;
73631;PMS5003;61924;53.268;-2.458;2022-12-17T19:09:22;7;7;
73631;PMS5003;61924;53.268;-2.458;2022-12-17T19:11:46;6;6;
73631;PMS5003;61924;53.268;-2.458;2022-12-17T19:14:12;7;6;
73631;PMS5003;61924;53.268;-2.458;2022-12-17T19:16:38;7;7;
73631;PMS5003;61924;53.268;-2.458;2022-12-17T19:19:03;6;6;
73631;PMS5003;61924;53.268;-2.458;2022-12-17T19:21:29;6;6;
73631;PMS5003;61924;53.268;-2.458;2022-12-17T19:23:54;7;6;
73631;PMS5003;61924;53.268;-2.458;2022-12-17T19:26:20;6;6;
73631;PMS5003;61924;53.268;-2.458;2022-12-17T19:28:46;6;5;
73631;PMS5003;61924;53.268;-2.458;2022-12-17T19:31:10;8;8;
73631;PMS5003;61924;53.268;-2.458;2022-12-17T19:33:36;5;5;
73631;PMS5003;61924;53.268;-2.458;2022-12-17T19:36:02;7;7;
73631;PMS5003;61924;53.268;-2.458;2022-12-17T19:38:26;4;4;
73631;PMS5003;61924;53.268;-2.458;2022-12-17T19:40:52;6;5;
73631;PMS5003;61924;53.268;-2.458;2022-12-17T19:43:18;6;6;
73631;PMS5003;61924;53.268;-2.458;2022-12-17T19:45:43;5;5;
73631;PMS5003;61924;53.268;-2.458;2022-12-17T19:48:08;7;7;
73631;PMS5003;61924;53.268;-2.458;2022-12-17T19:50:34;7;7;
73631;PMS5003;61924;53.268;-2.458;2022-12-17T19:52:59;6;6;
73631;PMS5003;61924;53.268;-2.458;2022-12-17T19:55:25;7;6;
73631;PMS5003;61924;53.268;-2.458;2022-12-17T19:57:50;6;6;
73631;PMS5003;61924;53.268;-2.458;2022-12-17T20:00:16;6;6;
73631;PMS5003;61924;53.268;-2.458;2022-12-17T20:02:41;8;7;
73631;PMS5003;61924;53.268;-2.458;2022-12-17T20:05:07;4;4;
73631;PMS5003;61924;53.268;-2.458;2022-12-17T20:07:33;6;6;
73631;PMS5003;61924;53.268;-2.458;2022-12-17T20:09:58;4;4;
73631;PMS5003;61924;53.268;-2.458;2022-12-17T20:12:23;6;6;
73631;PMS5003;61924;53.268;-2.458;2022-12-17T20:14:49;5;4;
73631;PMS5003;61924;53.268;-2.458;2022-12-17T20:17:14;4;4;
73631;PMS5003;61924;53.268;-2.458;2022-12-17T20:19:39;5;4;
73631;PMS5003;61924;53.268;-2.458;2022-12-17T20:22:05;5;5;
73631;PMS5003;61924;53.268;-2.458;2022-12-17T20:24:30;5;4;
73631;PMS5003;61924;53.268;-2.458;2022-12-17T20:26:56;5;5;
73631;PMS5003;61924;53.268;-2.458;2022-12-17T20:29:22;6;6;
73631;PMS5003;61924;53.268;-2.458;2022-12-17T20:31:47;6;6;
73631;PMS5003;61924;53.268;-2.458;2022-12-17T20:34:13;9;7;
73631;PMS5003;61924;53.268;-2.458;2022-12-17T20:36:38;5;4;
73631;PMS5003;61924;53.268;-2.458;2022-12-17T20:39:03;5;5;
73631;PMS5003;61924;53.268;-2.458;2022-12-17T20:41:29;6;6;
73631;PMS5003;61924;53.268;-2.458;2022-12-17T20:43:55;6;5;
73631;PMS5003;61924;53.268;-2.458;2022-12-17T20:46:20;7;6;
73631;PMS5003;61924;53.268;-2.458;2022-12-17T20:48:45;4;4;
73631;PMS5003;61924;53.268;-2.458;2022-12-17T20:51:11;7;6;
73631;PMS5003;61924;53.268;-2.458;2022-12-17T20:53:35;7;6;
73631;PMS5003;61924;53.268;-2.458;2022-12-17T20:56:01;5;5;
73631;PMS5003;61924;53.268;-2.458;2022-12-17T20:58:26;6;5;
73631;PMS5003;61924;53.268;-2.458;2022-12-17T21:00:51;5;5;
73631;PMS5003;61924;53.268;-2.458;2022-12-17T21:03:17;5;5;
73631;PMS5003;61924;53.268;-2.458;2022-12-17T21:05:42;6;6;
73631;PMS5003;61924;53.268;-2.458;2022-12-17T21:08:08;5;5;
73631;PMS5003;61924;53.268;-2.458;2022-12-17T21:10:33;5;5;
73631;PMS5003;61924;53.268;-2.458;2022-12-17T21:12:58;5;5;
73631;PMS5003;61924;53.268;-2.458;2022-12-17T21:15:23;5;5;
73631;PMS5003;61924;53.268;-2.458;2022-12-17T21:17:49;6;6;
73631;PMS5003;61924;53.268;-2.458;2022-12-17T21:20:14;7;7;
73631;PMS5003;61924;53.268;-2.458;2022-12-17T21:22:40;6;6;
73631;PMS5003;61924;53.268;-2.458;2022-12-17T21:25:06;5;5;
73631;PMS5003;61924;53.268;-2.458;2022-12-17T21:27:31;4;4;
73631;PMS5003;61924;53.268;-2.458;2022-12-17T21:29:56;3;3;
73631;PMS5003;61924;53.268;-2.458;2022-12-17T21:32:22;5;5;
73631;PMS5003;61924;53.268;-2.458;2022-12-17T21:34:47;4;4;
73631;PMS5003;61924;53.268;-2.458;2022-12-17T21:37:12;6;6;
73631;PMS5003;61924;53.268;-2.458;2022-12-17T21:39:37;6;6;
73631;PMS5003;61924;53.268;-2.458;2022-12-17T21:42:03;4;4;
73631;PMS5003;61924;53.268;-2.458;2022-12-17T21:44:28;6;5;
73631;PMS5003;61924;53.268;-2.458;2022-12-17T21:46:53;8;7;
73631;PMS5003;61924;53.268;-2.458;2022-12-17T21:49:19;5;5;
73631;PMS5003;61924;53.268;-2.458;2022-12-17T21:51:44;6;5;
73631;PMS5003;61924;53.268;-2.458;2022-12-17T21:54:09;5;5;
73631;PMS5003;61924;53.268;-2.458;2022-12-17T21:56:35;7;7;
73631;PMS5003;61924;53.268;-2.458;2022-12-17T21:59:00;7;6;
73631;PMS5003;61924;53.268;-2.458;2022-12-17T22:01:26;5;5;
73631;PMS5003;61924;53.268;-2.458;2022-12-17T22:03:52;5;5;
73631;PMS5003;61924;53.268;-2.458;2022-12-17T22:06:17;7;7;
73631;PMS5003;61924;53.268;-2.458;2022-12-17T22:08:43;8;8;
73631;PMS5003;61924;53.268;-2.458;2022-12-17T22:11:08;5;5;
73631;PMS5003;61924;53.268;-2.458;2022-12-17T22:13:33;8;8;
73631;PMS5003;61924;53.268;-2.458;2022-12-17T22:15:58;6;6;
73631;PMS5003;61924;53.268;-2.458;2022-12-17T22:18:24;5;5;
73631;PMS5003;61924;53.268;-2.458;2022-12-17T22:20:57;6;6;
73631;PMS5003;61924;53.268;-2.458;2022-12-17T22:23:15;6;6;
73631;PMS5003;61924;53.268;-2.458;2022-12-17T22:25:41;10;10;
73631;PMS5003;61924;53.268;-2.458;2022-12-17T22:28:06;7;7;
73631;PMS5003;61924;53.268;-2.458;2022-12-17T22:30:32;6;5;
73631;PMS5003;61924;53.268;-2.458;2022-12-17T22:32:57;7;7;
73631;PMS5003;61924;53.268;-2.458;2022-12-17T22:35:22;5;5;
73631;PMS5003;61924;53.268;-2.458;2022-12-17T22:37:48;7;7;
73631;PMS5003;61924;53.268;-2.458;2022-12-17T22:40:13;15;15;
73631;PMS5003;61924;53.268;-2.458;2022-12-17T22:42:39;15;15;
73631;PMS5003;61924;53.268;-2.458;2022-12-17T22:45:05;12;12;
73631;PMS5003;61924;53.268;-2.458;2022-12-17T22:47:30;16;14;
73631;PMS5003;61924;53.268;-2.458;2022-12-17T22:49:55;15;15;
73631;PMS5003;61924;53.268;-2.458;2022-12-17T22:52:20;12;12;
73631;PMS5003;61924;53.268;-2.458;2022-12-17T22:54:45;14;13;
73631;PMS5003;61924;53.268;-2.458;2022-12-17T22:57:10;13;12;
73631;PMS5003;61924;53.268;-2.458;2022-12-17T22:59:35;14;14;
73631;PMS5003;61924;53.268;-2.458;2022-12-17T23:02:01;11;10;
73631;PMS5003;61924;53.268;-2.458;2022-12-17T23:04:27;10;10;
73631;PMS5003;61924;53.268;-2.458;2022-12-17T23:06:52;12;11;
73631;PMS5003;61924;53.268;-2.458;2022-12-17T23:09:18;14;14;
73631;PMS5003;61924;53.268;-2.458;2022-12-17T23:11:44;10;10;
73631;PMS5003;61924;53.268;-2.458;2022-12-17T23:14:09;11;10;
73631;PMS5003;61924;53.268;-2.458;2022-12-17T23:16:36;12;12;
73631;PMS5003;61924;53.268;-2.458;2022-12-17T23:19:00;7;7;
73631;PMS5003;61924;53.268;-2.458;2022-12-17T23:21:25;10;10;
73631;PMS5003;61924;53.268;-2.458;2022-12-17T23:23:50;10;10;
73631;PMS5003;61924;53.268;-2.458;2022-12-17T23:26:17;11;9;
73631;PMS5003;61924;53.268;-2.458;2022-12-17T23:28:41;8;8;
73631;PMS5003;61924;53.268;-2.458;2022-12-17T23:31:07;8;8;
73631;PMS5003;61924;53.268;-2.458;2022-12-17T23:33:31;10;10;
73631;PMS5003;61924;53.268;-2.458;2022-12-17T23:36:00;8;8;
73631;PMS5003;61924;53.268;-2.458;2022-12-17T23:38:23;9;9;
73631;PMS5003;61924;53.268;-2.458;2022-12-17T23:40:48;10;10;
73631;PMS5003;61924;53.268;-2.458;2022-12-17T23:43:14;10;9;
73631;PMS5003;61924;53.268;-2.458;2022-12-17T23:45:40;8;8;
73631;PMS5003;61924;53.268;-2.458;2022-12-17T23:48:05;9;9;
73631;PMS5003;61924;53.268;-2.458;2022-12-17T23:50:31;9;8;
73631;PMS5003;61924;53.268;-2.458;2022-12-17T23:52:56;7;7;
73631;PMS5003;61924;53.268;-2.458;2022-12-17T23:55:21;7;7;
73631;PMS5003;61924;53.268;-2.458;2022-12-17T23:57:47;10;9;
